createdAt,value
2023-02-21T00:02:40.772Z,98387.78
2023-02-21T00:07:03.304Z,98376.50
2023-02-21T00:11:24.100Z,98372.94
2023-02-21T00:15:44.804Z,98371.38
2023-02-21T00:20:05.538Z,98377.47
2023-02-21T00:24:27.402Z,98379.06
2023-02-21T00:28:50.619Z,98383.34
2023-02-21T00:33:11.381Z,98373.69
2023-02-21T00:37:32.169Z,98377.19
2023-02-21T00:41:52.550Z,98371.91
2023-02-21T00:46:13.147Z,98377.03
2023-02-21T00:50:33.840Z,98360.53
2023-02-21T00:54:54.925Z,98364.97
2023-02-21T00:59:15.335Z,98359.66
2023-02-21T01:03:36.489Z,98358.53
2023-02-21T01:07:57.284Z,98367.03
2023-02-21T01:12:18.283Z,98366.94
2023-02-21T01:16:39.057Z,98364.22
2023-02-21T01:20:59.989Z,98363.38
2023-02-21T01:25:20.698Z,98367.75
2023-02-21T01:29:41.479Z,98372.16
2023-02-21T01:34:02.364Z,98368.84
2023-02-21T01:38:23.100Z,98369.59
2023-02-21T01:42:45.211Z,98366.28
2023-02-21T01:47:07.663Z,98369.75
2023-02-21T01:51:30.602Z,98373.34
2023-02-21T01:55:52.336Z,98368.97
2023-02-21T02:00:17.133Z,98362.91
2023-02-21T02:04:37.928Z,98364.44
2023-02-21T02:08:58.580Z,98355.44
2023-02-21T02:13:25.082Z,98356.97
2023-02-21T02:17:57.181Z,98363.72
2023-02-21T02:22:17.511Z,98355.75
2023-02-21T02:26:50.335Z,98363.47
2023-02-21T02:30:58.648Z,98356.38
2023-02-21T02:35:16.750Z,98348.41
2023-02-21T02:39:48.735Z,98345.69
2023-02-21T02:44:02.132Z,98358.59
2023-02-21T02:48:22.288Z,98348.25
2023-02-21T02:52:24.301Z,98346.63
2023-02-21T02:56:28.878Z,98346.50
2023-02-21T03:00:36.479Z,98343.91
2023-02-21T03:05:09.349Z,98342.91
2023-02-21T03:09:29.331Z,98342.69
2023-02-21T03:13:47.674Z,98335.69
2023-02-21T03:17:57.426Z,98330.31
2023-02-21T03:22:13.333Z,98318.88
2023-02-21T03:26:17.227Z,98328.47
2023-02-21T03:30:23.090Z,98318.13
2023-02-21T03:34:26.403Z,98322.06
2023-02-21T03:38:30.649Z,98314.69
2023-02-21T03:42:33.199Z,98320.28
2023-02-21T03:46:36.774Z,98319.66
2023-02-21T03:50:40.473Z,98331.13
2023-02-21T03:54:43.158Z,98326.22
2023-02-21T03:58:48.566Z,98327.47
2023-02-21T04:02:50.950Z,98328.59
2023-02-21T04:07:01.451Z,98323.91
2023-02-21T04:11:04.267Z,98325.59
2023-02-21T04:15:11.204Z,98317.47
2023-02-21T04:19:13.433Z,98322.97
2023-02-21T04:23:18.705Z,98317.75
2023-02-21T04:27:21.322Z,98322.94
2023-02-21T04:31:29.379Z,98323.81
2023-02-21T04:35:34.632Z,98322.16
2023-02-21T04:39:42.596Z,98318.81
2023-02-21T04:43:45.347Z,98324.03
2023-02-21T04:47:47.730Z,98316.34
2023-02-21T04:51:49.736Z,98313.72
2023-02-21T04:55:51.755Z,98313.72
2023-02-21T04:59:59.699Z,98310.28
2023-02-21T05:04:01.919Z,98308.63
2023-02-21T05:08:04.149Z,98309.66
2023-02-21T05:12:11.351Z,98305.28
2023-02-21T05:16:13.634Z,98310.22
2023-02-21T05:20:15.586Z,98303.03
2023-02-21T05:24:17.583Z,98307.13
2023-02-21T05:28:19.589Z,98306.06
2023-02-21T05:32:22.121Z,98305.09
2023-02-21T05:36:25.387Z,98307.56
2023-02-21T05:40:27.420Z,98304.78
2023-02-21T05:44:29.415Z,98309.00
2023-02-21T05:48:31.519Z,98304.66
2023-02-21T05:52:33.561Z,98304.47
2023-02-21T05:56:39.982Z,98305.28
2023-02-21T06:00:41.956Z,98305.22
2023-02-21T06:04:43.940Z,98298.44
2023-02-21T06:08:47.951Z,98306.25
2023-02-21T06:12:49.939Z,98299.16
2023-02-21T06:16:52.061Z,98304.25
2023-02-21T06:20:54.208Z,98306.41
2023-02-21T06:24:56.241Z,98299.22
2023-02-21T06:28:58.529Z,98306.03
2023-02-21T06:33:00.626Z,98301.56
2023-02-21T06:37:02.732Z,98303.09
2023-02-21T06:41:08.725Z,98298.75
2023-02-21T06:45:10.741Z,98302.50
2023-02-21T06:49:13.033Z,98297.13
2023-02-21T06:53:15.281Z,98302.06
2023-02-21T06:57:17.509Z,98293.88
2023-02-21T07:01:19.734Z,98295.28
2023-02-21T07:05:21.843Z,98309.84
2023-02-21T07:09:23.877Z,98295.69
2023-02-21T07:13:25.883Z,98298.22
2023-02-21T07:17:27.914Z,98293.56
2023-02-21T07:21:30.469Z,98288.97
2023-02-21T07:25:32.877Z,98290.56
2023-02-21T07:29:34.902Z,98293.72
2023-02-21T07:33:36.990Z,98292.47
2023-02-21T07:37:40.099Z,98300.00
2023-02-21T07:41:42.104Z,98286.69
2023-02-21T07:45:45.066Z,98300.78
2023-02-21T07:49:47.064Z,98303.00
2023-02-21T07:53:49.061Z,98296.09
2023-02-21T07:57:51.132Z,98293.25
2023-02-21T08:01:53.192Z,98293.50
2023-02-21T08:05:55.318Z,98287.88
2023-02-21T08:09:57.322Z,98287.78
2023-02-21T08:13:59.400Z,98287.47
2023-02-21T08:18:01.422Z,98281.81
2023-02-21T08:22:03.457Z,98284.81
2023-02-21T08:26:05.895Z,98296.72
2023-02-21T08:30:09.890Z,98289.81
2023-02-21T08:34:12.567Z,98295.69
2023-02-21T08:38:14.698Z,98291.31
2023-02-21T08:42:16.746Z,98308.44
2023-02-21T08:46:18.759Z,98300.50
2023-02-21T08:50:23.285Z,98307.41
2023-02-21T08:54:25.277Z,98294.31
2023-02-21T08:58:27.267Z,98304.69
2023-02-21T09:02:30.557Z,98305.28
2023-02-21T09:06:32.912Z,98300.63
2023-02-21T09:10:35.078Z,98293.59
2023-02-21T09:14:39.358Z,98299.72
2023-02-21T09:18:41.376Z,98296.19
2023-02-21T09:22:47.567Z,98290.28
2023-02-21T09:26:49.652Z,98293.25
2023-02-21T09:30:51.737Z,98293.34
2023-02-21T09:34:53.744Z,98292.84
2023-02-21T09:38:55.709Z,98287.88
2023-02-21T09:43:01.266Z,98290.06
2023-02-21T09:47:05.938Z,98294.09
2023-02-21T09:51:10.751Z,98296.16
2023-02-21T09:55:38.888Z,98304.22
2023-02-21T09:59:41.104Z,98292.97
2023-02-21T10:03:49.425Z,98292.38
2023-02-21T10:08:16.288Z,98298.47
2023-02-21T10:12:28.681Z,98301.28
2023-02-21T10:16:56.175Z,98292.47
2023-02-21T10:21:02.449Z,98289.50
2023-02-21T10:25:21.908Z,98288.59
2023-02-21T10:29:48.657Z,98293.97
2023-02-21T10:33:51.228Z,98295.84
2023-02-21T10:37:59.250Z,98300.06
2023-02-21T10:42:01.548Z,98297.91
2023-02-21T10:46:12.672Z,98301.31
2023-02-21T10:50:14.745Z,98290.09
2023-02-21T10:54:20.863Z,98291.16
2023-02-21T10:58:27.705Z,98296.00
2023-02-21T11:02:35.944Z,98288.53
2023-02-21T11:06:39.990Z,98285.34
2023-02-21T11:10:44.079Z,98278.81
2023-02-21T11:14:52.112Z,98275.59
2023-02-21T11:19:07.767Z,98264.50
2023-02-21T11:23:22.986Z,98263.69
2023-02-21T11:27:25.517Z,98259.00
2023-02-21T11:31:30.870Z,98258.22
2023-02-21T11:35:51.178Z,98246.81
2023-02-21T11:39:53.204Z,98244.78
2023-02-21T11:43:56.782Z,98240.31
2023-02-21T11:48:07.098Z,98238.88
2023-02-21T11:52:14.690Z,98224.75
2023-02-21T11:56:35.861Z,98224.69
2023-02-21T12:01:02.236Z,98224.59
2023-02-21T12:05:26.043Z,98220.16
2023-02-21T12:09:39.822Z,98215.69
2023-02-21T12:14:02.529Z,98207.78
2023-02-21T12:18:26.624Z,98200.59
2023-02-21T12:23:06.012Z,98201.22
2023-02-21T12:27:11.836Z,98187.47
2023-02-21T12:31:32.819Z,98180.81
2023-02-21T12:35:49.974Z,98178.97
2023-02-21T12:40:18.910Z,98163.53
2023-02-21T12:44:27.097Z,98157.41
2023-02-21T12:48:51.848Z,98151.81
2023-02-21T12:53:14.225Z,98145.59
2023-02-21T12:57:21.757Z,98140.00
2023-02-21T13:01:36.981Z,98149.25
2023-02-21T13:05:47.151Z,98137.78
2023-02-21T13:09:55.655Z,98138.44
2023-02-21T13:13:58.788Z,98131.38
2023-02-21T13:18:09.145Z,98123.28
2023-02-21T13:22:42.762Z,98119.88
2023-02-21T13:26:55.858Z,98113.50
2023-02-21T13:31:00.779Z,98109.06
2023-02-21T13:35:08.756Z,98103.09
2023-02-21T13:39:18.669Z,98089.91
2023-02-21T13:43:29.280Z,98079.09
2023-02-21T13:47:53.889Z,98080.72
2023-02-21T13:52:13.836Z,98072.97
2023-02-21T13:56:17.378Z,98071.28
2023-02-21T14:00:25.433Z,98062.25
2023-02-21T14:04:51.256Z,98059.69
2023-02-21T14:09:01.318Z,98057.91
2023-02-21T14:13:07.579Z,98048.28
2023-02-21T14:17:13.774Z,98055.53
2023-02-21T14:21:19.784Z,98056.97
2023-02-21T14:25:24.767Z,98040.53
2023-02-21T14:30:05.578Z,98046.00
2023-02-21T14:34:11.798Z,98046.28
2023-02-21T14:38:23.746Z,98035.81
2023-02-21T14:42:38.002Z,98038.50
2023-02-21T14:47:28.830Z,98034.34
2023-02-21T14:51:40.396Z,98019.72
2023-02-21T14:56:02.028Z,98021.63
2023-02-21T15:00:06.988Z,98016.53
2023-02-21T15:04:33.195Z,98015.94
2023-02-21T15:08:50.641Z,98014.69
2023-02-21T15:12:59.104Z,98010.44
2023-02-21T15:17:17.888Z,98002.69
2023-02-21T15:21:20.568Z,98004.50
2023-02-21T15:25:22.918Z,98002.28
2023-02-21T15:29:24.948Z,98005.00
2023-02-21T15:33:30.319Z,97993.78
2023-02-21T15:37:35.568Z,97996.78
2023-02-21T15:41:47.636Z,98004.88
2023-02-21T15:45:51.644Z,97992.09
2023-02-21T15:50:07.534Z,97989.91
2023-02-21T15:54:18.544Z,97986.72
2023-02-21T15:58:24.947Z,97990.59
2023-02-21T16:02:27.113Z,97982.38
2023-02-21T16:06:32.206Z,97984.59
2023-02-21T16:10:34.548Z,97989.44
2023-02-21T16:14:45.013Z,97982.03
2023-02-21T16:18:55.306Z,97976.47
2023-02-21T16:23:24.507Z,97982.31
2023-02-21T16:27:26.530Z,97982.91
2023-02-21T16:31:32.339Z,97986.16
2023-02-21T16:35:34.611Z,97983.25
2023-02-21T16:39:36.827Z,97984.69
2023-02-21T16:43:38.845Z,97987.06
2023-02-21T16:47:43.350Z,97993.84
2023-02-21T16:51:45.330Z,97996.22
2023-02-21T16:55:48.839Z,97996.06
2023-02-21T16:59:50.873Z,97986.97
2023-02-21T17:03:53.970Z,97987.50
2023-02-21T17:07:58.257Z,97987.00
2023-02-21T17:12:03.094Z,97982.34
2023-02-21T17:16:06.578Z,97983.00
2023-02-21T17:20:14.413Z,97988.41
2023-02-21T17:24:17.241Z,97989.41
2023-02-21T17:28:19.260Z,97999.47
2023-02-21T17:32:21.282Z,98003.84
2023-02-21T17:36:25.962Z,98005.19
2023-02-21T17:40:29.166Z,98009.97
2023-02-21T17:44:31.198Z,98007.06
2023-02-21T17:48:33.253Z,98011.25
2023-02-21T17:52:35.611Z,98013.72
2023-02-21T17:56:37.638Z,98027.28
2023-02-21T18:00:39.611Z,98016.59
2023-02-21T18:04:41.817Z,98024.13
2023-02-21T18:08:47.349Z,98031.13
2023-02-21T18:12:51.329Z,98022.53
2023-02-21T18:16:56.292Z,98029.25
2023-02-21T18:20:59.658Z,98014.88
2023-02-21T18:25:01.817Z,98027.94
2023-02-21T18:29:07.515Z,98025.31
2023-02-21T18:33:09.532Z,98025.44
2023-02-21T18:37:11.525Z,98026.91
2023-02-21T18:41:15.675Z,98030.44
2023-02-21T18:45:17.971Z,98031.25
2023-02-21T18:49:22.034Z,98035.13
2023-02-21T18:53:24.013Z,98036.59
2023-02-21T18:57:25.993Z,98031.22
2023-02-21T19:01:28.101Z,98025.41
2023-02-21T19:05:30.165Z,98026.97
2023-02-21T19:09:32.176Z,98021.13
2023-02-21T19:13:34.185Z,98019.53
2023-02-21T19:17:36.298Z,98007.22
2023-02-21T19:21:38.320Z,98015.13
2023-02-21T19:25:40.406Z,98017.22
2023-02-21T19:29:43.122Z,98017.00
2023-02-21T19:33:45.181Z,98020.28
2023-02-21T19:37:47.167Z,98014.72
2023-02-21T19:41:49.185Z,98022.81
2023-02-21T19:45:52.642Z,98018.56
2023-02-21T19:49:54.737Z,98018.84
2023-02-21T19:53:59.022Z,98026.53
2023-02-21T19:58:06.428Z,98026.47
2023-02-21T20:02:10.242Z,98013.63
2023-02-21T20:06:12.184Z,98027.09
2023-02-21T20:10:16.654Z,98018.22
2023-02-21T20:14:20.063Z,98013.81
2023-02-21T20:18:22.094Z,98010.53
2023-02-21T20:22:25.464Z,98014.91
2023-02-21T20:26:29.145Z,98013.94
2023-02-21T20:30:31.376Z,98026.03
2023-02-21T20:34:34.476Z,98023.56
2023-02-21T20:38:37.301Z,98014.94
2023-02-21T20:42:39.350Z,98020.34
2023-02-21T20:46:41.484Z,98018.59
2023-02-21T20:50:46.154Z,98017.72
2023-02-21T20:54:48.203Z,98009.84
2023-02-21T20:58:50.409Z,98009.41
2023-02-21T21:02:52.970Z,98000.09
2023-02-21T21:06:57.350Z,97997.72
2023-02-21T21:10:59.362Z,98002.19
2023-02-21T21:15:02.763Z,98000.41
2023-02-21T21:19:04.963Z,98010.97
2023-02-21T21:23:07.258Z,98010.97
2023-02-21T21:27:10.104Z,98008.28
2023-02-21T21:31:13.619Z,97999.91
2023-02-21T21:35:17.112Z,98009.78
2023-02-21T21:39:23.125Z,98001.84
2023-02-21T21:43:28.161Z,98001.09
2023-02-21T21:47:36.062Z,97998.06
2023-02-21T21:51:38.046Z,97996.63
2023-02-21T21:55:40.211Z,97990.88
2023-02-21T21:59:43.443Z,97993.50
2023-02-21T22:03:46.016Z,97995.22
2023-02-21T22:07:49.004Z,97985.63
2023-02-21T22:11:52.557Z,97987.44
2023-02-21T22:15:55.675Z,97985.25
2023-02-21T22:19:57.723Z,97972.41
2023-02-21T22:24:00.433Z,97974.13
2023-02-21T22:28:12.962Z,97968.19
2023-02-21T22:32:16.279Z,97975.28
2023-02-21T22:36:18.406Z,97966.88
2023-02-21T22:40:24.232Z,97972.00
2023-02-21T22:44:26.367Z,97964.03
2023-02-21T22:48:28.408Z,97969.22
2023-02-21T22:52:30.766Z,97961.69
2023-02-21T22:56:38.291Z,97971.59
2023-02-21T23:00:40.550Z,97956.97
2023-02-21T23:04:46.094Z,97957.91
2023-02-21T23:08:50.174Z,97952.81
2023-02-21T23:13:00.711Z,97944.41
2023-02-21T23:17:03.029Z,97939.91
2023-02-21T23:21:05.635Z,97938.16
2023-02-21T23:25:19.676Z,97931.25
2023-02-21T23:29:24.565Z,97939.06
2023-02-21T23:33:33.736Z,97938.16
2023-02-21T23:37:42.868Z,97940.75
2023-02-21T23:41:48.776Z,97936.78
2023-02-21T23:45:52.717Z,97936.50
2023-02-21T23:49:57.975Z,97933.16
2023-02-21T23:53:59.961Z,97929.03
2023-02-21T23:58:04.054Z,97932.41
